首页
METAR-TAF:

METAR-TAF

机场 :

North Myrtle Beach, 南卡罗来纳州, 美国

纬度: 33-48-42N, 经度: 078-43-26W, 海拔: 10米

当前天气观测

该预报发布于34分钟前的23:53 UTC
风速4节,风向
温度 26°C
湿度 70%
气压 1018 hPa
能見度: 16.1公里
天空无云

METAR: KCRE 232353Z 10004KT 10SM CLR 26/20 A3007 RMK AO1 SLP182 T02610200 10289 20250 53006

时间: 20:27 (00:27 UTC)

预报

该预报发布于1小时和2分钟前的23:25 UTC
预报有效从24日的 00点(UTC)到 24日的 24点(UTC)
风速4节,风向东转东南
能見度: 10公里
散云层高于25000英尺
从 24日的 1000点(UTC)
风速6节,风向北转东北
能見度: 10公里
散云层高于2000英尺
附近有阵雨
从 24日的 1400点(UTC)
风速10节,风向
能見度: 10公里
天空无云
从 24日的 1800点(UTC)
风速8节,风向东南
能見度: 10公里
散云层高于3000英尺

TAF: KCRE 232325Z 2400/2424 12004KT P6SM SCT250 FM241000 03006KT P6SM VCSH SCT020 FM241400 10010KT P6SM SKC FM241800 13008KT P6SM SCT030

超过4000个机场的气象观测和天气预报(METAR&TAF报告)。

可查询的气象台以黄色和红色小点在地图上表示。

将鼠标移到小点上方,可查看气象台名称。

然后点击查看天气观测和预报。

如需切换地图:点击带黑十字的绿色按钮放大地图;点击带横线的绿色按钮缩小地图;或者点击绿色箭头查看邻近地区的地图。


METAR-TAF: